KALO/ALO METAR and TAF weather

Enter ICAO airport designator
Station Type Date Time Source
KALO METAR 2024/04/15 08:54 UTC NOAA

KALO 150854Z AUTO 30003KT 10SM CLR 04/M01 A2994 RMK AO2 SLP136 T00441006 53007


Station Type Date Time Source
KALO Decoded METAR 2024/04/15 08:54 UTC NOAA

WATERLOO MUNICIPAL AIRPORT, IA, United States (KALO) 42-33N 92-24W 264M
Apr 15, 2024 - 04:54 AM EDT / 2024.04.15 0854 UTC
Wind: from the WNW (300 degrees) at 3 MPH (3 KT):0
Visibility: 10 mile(s):0
Sky conditions: clear
Temperature: 39.9 F (4.4 C)
Dew Point: 30.9 F (-0.6 C)
Relative Humidity: 69%
Pressure (altimeter): 29.94 in. Hg (1013 hPa)
Pressure tendency: 0.02 inches (0.7 hPa) higher than three hours ago
ob: KALO 150854Z AUTO 30003KT 10SM CLR 04/M01 A2994 RMK AO2 SLP136 T00441006 53007
cycle: 9

Station Type Date Time Source
KALO TAF 2024/04/15 06:59 UTC NOAA